Time;durP1;ratioP1;P1;durP2;ratioP2;P2;SDS_P1;SDS_P2;PMS_P1;PMS_P2;Temp;Humidity;BMP_temperature;BMP_pressure;BME280_temperature;BME280_humidity;BME280_pressure;Samples;Min_cycle;Max_cycle;Signal;HPM_P1;HPM_P2
2023/12/20 00:01:18;;;;;;;0.50;0.50;;;5.60;99.90;;;;;;5077346;28;20036;-68
2023/12/20 00:03:44;;;;;;;0.70;0.40;;;5.60;99.90;;;;;;5078393;28;20396;-68
2023/12/20 00:06:10;;;;;;;0.60;0.40;;;5.60;99.90;;;;;;5078683;28;20033;-68
2023/12/20 00:08:36;;;;;;;1.15;0.60;;;5.60;99.90;;;;;;5077905;28;20036;-68
2023/12/20 00:11:01;;;;;;;1.67;0.60;;;5.60;99.90;;;;;;5076096;28;20025;-68
2023/12/20 00:13:27;;;;;;;0.82;0.65;;;5.60;99.90;;;;;;5079448;28;20110;-66
2023/12/20 00:15:53;;;;;;;0.65;0.65;;;5.60;99.90;;;;;;5088459;28;20639;-68
2023/12/20 00:18:18;;;;;;;0.68;0.52;;;5.60;99.90;;;;;;5066594;28;20555;-66
2023/12/20 00:20:44;;;;;;;1.65;0.75;;;5.60;99.90;;;;;;5063267;28;20452;-68
2023/12/20 00:23:09;;;;;;;1.08;0.60;;;5.60;99.90;;;;;;5063291;28;20028;-67
2023/12/20 00:25:35;;;;;;;1.55;0.57;;;5.60;99.90;;;;;;5064552;28;20037;-68
2023/12/20 00:28:01;;;;;;;0.65;0.60;;;5.60;99.90;;;;;;5064523;28;20037;-68
2023/12/20 00:30:26;;;;;;;1.15;0.70;;;5.60;99.90;;;;;;5062974;28;20093;-68
2023/12/20 00:32:52;;;;;;;1.05;0.60;;;5.60;99.90;;;;;;5066956;28;20033;-67
2023/12/20 00:35:18;;;;;;;1.13;0.57;;;5.60;99.90;;;;;;5065110;28;20179;-67
2023/12/20 00:37:43;;;;;;;0.50;0.38;;;5.60;99.90;;;;;;5069467;28;20056;-68
2023/12/20 00:40:10;;;;;;;1.45;0.65;;;5.70;99.90;;;;;;5064056;28;20037;-68
2023/12/20 00:42:38;;;;;;;2.40;0.40;;;5.70;99.90;;;;;;5063589;28;20141;-67
2023/12/20 00:45:05;;;;;;;0.75;0.65;;;5.70;99.90;;;;;;5058872;28;20039;-68
2023/12/20 00:47:31;;;;;;;2.22;1.27;;;5.70;99.90;;;;;;5060172;28;20051;-66
2023/12/20 00:49:57;;;;;;;2.35;1.73;;;5.60;99.90;;;;;;5064079;28;20032;-67
2023/12/20 00:52:22;;;;;;;3.08;1.83;;;5.60;99.90;;;;;;5062579;28;20053;-68
2023/12/20 00:54:48;;;;;;;3.55;2.00;;;5.60;99.90;;;;;;5064361;28;20517;-67
2023/12/20 00:57:15;;;;;;;3.42;2.10;;;5.60;99.90;;;;;;5062917;28;20052;-68
2023/12/20 00:59:40;;;;;;;2.13;1.90;;;5.60;99.90;;;;;;5064153;28;20635;-68
2023/12/20 01:02:06;;;;;;;2.95;2.25;;;5.60;99.90;;;;;;5059749;28;20063;-65
2023/12/20 01:04:31;;;;;;;2.90;2.13;;;5.60;99.90;;;;;;5060467;28;20443;-66
2023/12/20 01:06:57;;;;;;;3.80;2.20;;;5.60;99.90;;;;;;5062584;28;20416;-68
2023/12/20 01:09:29;;;;;;;4.40;3.10;;;5.60;99.90;;;;;;5061890;28;20085;-67
2023/12/20 01:11:54;;;;;;;4.32;3.38;;;5.60;99.90;;;;;;5059720;28;20032;-68
2023/12/20 01:14:20;;;;;;;5.43;3.83;;;5.60;99.90;;;;;;5060372;28;20045;-69
2023/12/20 01:16:46;;;;;;;;;;;5.60;99.90;;;;;;5070259;28;20031;-69
2023/12/20 01:19:13;;;;;;;6.70;4.35;;;5.60;99.90;;;;;;5059933;28;19920;-69
2023/12/20 01:21:39;;;;;;;6.32;4.38;;;5.60;99.90;;;;;;5055590;28;20044;-67
2023/12/20 01:24:04;;;;;;;6.30;4.05;;;5.60;99.90;;;;;;5060572;28;20028;-69
2023/12/20 01:26:30;;;;;;;6.63;4.40;;;5.60;99.90;;;;;;5061371;28;20548;-68
2023/12/20 01:28:55;;;;;;;5.88;3.90;;;5.60;99.90;;;;;;5071368;28;20115;-67
2023/12/20 01:31:21;;;;;;;4.32;3.00;;;5.60;99.90;;;;;;5062148;28;20549;-68
2023/12/20 01:33:46;;;;;;;3.60;2.58;;;5.60;99.90;;;;;;5062668;28;20186;-70
2023/12/20 01:36:12;;;;;;;3.42;2.20;;;5.50;99.90;;;;;;5062705;28;20055;-68
2023/12/20 01:38:38;;;;;;;3.15;2.05;;;5.50;99.90;;;;;;5061923;28;20038;-69
2023/12/20 01:41:04;;;;;;;2.83;1.80;;;5.40;99.90;;;;;;5056903;28;20044;-68
2023/12/20 01:43:30;;;;;;;3.33;1.77;;;5.40;99.90;;;;;;5062611;28;20052;-67
2023/12/20 01:46:00;;;;;;;2.47;1.65;;;5.40;99.90;;;;;;5063571;28;20062;-68
2023/12/20 01:48:27;;;;;;;3.30;1.92;;;5.20;99.90;;;;;;5063151;28;20037;-67
2023/12/20 01:50:53;;;;;;;4.38;1.92;;;5.20;99.90;;;;;;5061804;28;20028;-68
2023/12/20 01:53:21;;;;;;;5.60;1.67;;;5.10;99.90;;;;;;5063682;28;20124;-68
2023/12/20 01:55:48;;;;;;;2.85;1.90;;;5.10;99.90;;;;;;5063123;28;20491;-67
2023/12/20 01:58:14;;;;;;;4.60;1.73;;;5.10;99.90;;;;;;5064358;28;20051;-67
2023/12/20 02:00:40;;;;;;;2.42;1.30;;;5.10;99.90;;;;;;5063309;28;20035;-68
2023/12/20 02:03:06;;;;;;;2.97;1.52;;;5.00;99.90;;;;;;5064097;28;20040;-68
2023/12/20 02:05:33;;;;;;;3.00;1.48;;;5.00;99.90;;;;;;5062519;28;20195;-68
2023/12/20 02:07:59;;;;;;;3.95;1.30;;;5.00;99.90;;;;;;5070472;28;20655;-67
2023/12/20 02:10:25;;;;;;;3.30;1.77;;;5.00;99.90;;;;;;5064519;28;20047;-68
2023/12/20 02:12:51;;;;;;;3.17;1.58;;;5.00;99.90;;;;;;5067532;28;20124;-67
2023/12/20 02:15:16;;;;;;;3.33;1.70;;;5.00;99.90;;;;;;5062718;28;20391;-69
2023/12/20 02:17:43;;;;;;;3.15;1.45;;;4.90;99.90;;;;;;5066353;28;20044;-71
2023/12/20 02:20:09;;;;;;;5.63;1.75;;;5.00;99.90;;;;;;5063714;28;20797;-67
2023/12/20 02:22:35;;;;;;;2.75;1.35;;;5.00;99.90;;;;;;5062651;28;20052;-68
2023/12/20 02:25:01;;;;;;;3.22;1.42;;;5.00;99.90;;;;;;5067607;28;20115;-68
2023/12/20 02:27:27;;;;;;;2.00;1.00;;;4.90;99.90;;;;;;5069286;28;20040;-68
2023/12/20 02:29:53;;;;;;;2.15;1.20;;;4.90;99.90;;;;;;5063541;28;20033;-68
2023/12/20 02:32:21;;;;;;;1.67;1.08;;;4.80;99.90;;;;;;5063390;28;20036;-67
2023/12/20 02:34:48;;;;;;;2.20;1.08;;;4.70;99.90;;;;;;5054406;28;20037;-67
2023/12/20 02:37:14;;;;;;;2.13;1.30;;;4.50;99.90;;;;;;5060905;28;20729;-68
2023/12/20 02:39:39;;;;;;;1.33;1.13;;;4.50;99.90;;;;;;5060151;28;20068;-67
2023/12/20 02:42:05;;;;;;;5.80;1.90;;;4.50;99.90;;;;;;5060603;28;20036;-68
2023/12/20 02:44:30;;;;;;;4.18;2.28;;;4.60;99.90;;;;;;5055667;28;20071;-68
2023/12/20 02:46:56;;;;;;;10.45;3.25;;;4.60;99.90;;;;;;5070847;28;20078;-67
2023/12/20 02:49:21;;;;;;;9.25;3.13;;;4.60;99.90;;;;;;5066396;28;20045;-68
2023/12/20 02:51:47;;;;;;;9.05;3.30;;;4.60;99.90;;;;;;5072085;28;20548;-68
2023/12/20 02:54:13;;;;;;;12.50;3.60;;;4.60;99.90;;;;;;5061482;28;20463;-67
2023/12/20 02:56:38;;;;;;;12.55;4.03;;;4.60;99.90;;;;;;5062358;28;20560;-67
2023/12/20 02:59:05;;;;;;;7.50;4.07;;;4.60;99.90;;;;;;5069336;28;20029;-68
2023/12/20 03:01:31;;;;;;;13.63;3.40;;;4.60;99.90;;;;;;5068465;28;20127;-68
2023/12/20 03:03:57;;;;;;;6.28;3.05;;;4.50;99.90;;;;;;5072961;28;20115;-68
2023/12/20 03:06:22;;;;;;;11.75;3.30;;;4.50;99.90;;;;;;5070535;28;20049;-68
2023/12/20 03:08:48;;;;;;;9.65;2.72;;;4.50;99.90;;;;;;5071680;28;20040;-68
2023/12/20 03:11:13;;;;;;;10.48;3.20;;;4.50;99.90;;;;;;5068918;28;20496;-68
2023/12/20 03:13:39;;;;;;;10.32;2.50;;;4.40;99.90;;;;;;5065543;28;20042;-68
2023/12/20 03:16:12;;;;;;;8.00;2.60;;;4.40;99.90;;;;;;5063448;28;20184;-68
2023/12/20 03:18:38;;;;;;;7.72;2.83;;;4.40;99.90;;;;;;5061258;28;20508;-68
2023/12/20 03:21:05;;;;;;;12.13;2.70;;;4.40;99.90;;;;;;5068784;28;20036;-68
2023/12/20 03:23:32;;;;;;;9.57;2.88;;;4.40;99.90;;;;;;5061086;28;20040;-67
2023/12/20 03:25:58;;;;;;;9.20;3.45;;;4.40;99.90;;;;;;5074784;28;20064;-69
2023/12/20 03:28:24;;;;;;;15.93;3.80;;;4.40;99.90;;;;;;5062893;28;20044;-68
2023/12/20 03:30:50;;;;;;;8.48;2.72;;;4.30;99.90;;;;;;5061870;28;20033;-69
2023/12/20 03:33:15;;;;;;;6.50;3.20;;;4.30;99.90;;;;;;5062839;28;20036;-68
2023/12/20 03:35:41;;;;;;;14.70;3.70;;;4.30;99.90;;;;;;5062608;28;20048;-69
2023/12/20 03:38:06;;;;;;;10.45;3.55;;;4.20;99.90;;;;;;5061948;28;20043;-67
2023/12/20 03:40:32;;;;;;;11.77;3.85;;;4.30;99.90;;;;;;5066880;28;20127;-66
2023/12/20 03:42:58;;;;;;;7.18;3.13;;;4.30;99.90;;;;;;5063503;28;20036;-67
2023/12/20 03:45:24;;;;;;;7.28;2.83;;;4.30;99.90;;;;;;5065524;28;20055;-68
2023/12/20 03:47:49;;;;;;;7.60;2.42;;;4.30;99.90;;;;;;5062743;28;20048;-68
2023/12/20 03:50:15;;;;;;;9.23;2.60;;;4.30;99.90;;;;;;5059868;28;20040;-67
2023/12/20 03:52:41;;;;;;;4.55;2.42;;;4.30;99.90;;;;;;5069541;28;20127;-68
2023/12/20 03:55:06;;;;;;;7.47;2.28;;;4.20;99.90;;;;;;5068946;28;20625;-69
2023/12/20 03:57:32;;;;;;;7.32;2.00;;;4.20;99.90;;;;;;5070864;28;20052;-65
2023/12/20 03:59:57;;;;;;;9.10;2.50;;;4.10;99.90;;;;;;5062321;28;20476;-68
2023/12/20 04:02:23;;;;;;;7.38;2.10;;;4.10;99.90;;;;;;5065862;28;20495;-68
2023/12/20 04:04:49;;;;;;;7.90;1.92;;;4.10;99.90;;;;;;5066135;28;20707;-68
2023/12/20 04:07:14;;;;;;;14.93;2.20;;;4.00;99.90;;;;;;5063280;28;20064;-68
2023/12/20 04:09:41;;;;;;;7.53;1.45;;;4.00;99.90;;;;;;5069420;28;20040;-68
2023/12/20 04:12:06;;;;;;;4.53;1.50;;;4.00;99.90;;;;;;5068679;28;20048;-68
2023/12/20 04:14:32;;;;;;;13.43;2.15;;;4.00;99.90;;;;;;5066710;28;20203;-69
2023/12/20 04:16:58;;;;;;;7.75;2.13;;;4.00;99.90;;;;;;5065151;28;20036;-68
2023/12/20 04:19:24;;;;;;;9.65;2.15;;;4.00;99.90;;;;;;5064599;28;20036;-65
2023/12/20 04:21:49;;;;;;;7.65;2.08;;;4.00;99.90;;;;;;5064941;28;20093;-68
2023/12/20 04:24:15;;;;;;;12.60;2.15;;;4.00;99.90;;;;;;5065452;28;20121;-67
2023/12/20 04:26:40;;;;;;;11.32;2.45;;;3.90;99.90;;;;;;5065988;28;20090;-67
2023/12/20 04:29:06;;;;;;;6.80;1.40;;;3.90;99.90;;;;;;5065051;28;20040;-65
2023/12/20 04:31:31;;;;;;;9.93;2.13;;;3.90;99.90;;;;;;5063802;28;20859;-68
2023/12/20 04:33:57;;;;;;;13.63;2.20;;;4.00;99.90;;;;;;5065203;28;20075;-67
2023/12/20 04:36:23;;;;;;;13.90;2.70;;;4.00;99.90;;;;;;5062164;28;20153;-67
2023/12/20 04:38:49;;;;;;;7.20;2.33;;;4.00;99.90;;;;;;5064796;28;20067;-68
2023/12/20 04:41:15;;;;;;;8.93;3.00;;;4.00;99.90;;;;;;5072419;28;20024;-67
2023/12/20 04:43:41;;;;;;;8.93;3.20;;;4.00;99.90;;;;;;5065989;28;20055;-67
2023/12/20 04:46:07;;;;;;;9.05;3.03;;;3.90;99.90;;;;;;5069820;28;20036;-68
2023/12/20 04:48:32;;;;;;;12.98;3.40;;;4.00;99.90;;;;;;5070700;28;20040;-67
2023/12/20 04:50:58;;;;;;;11.85;3.33;;;3.90;99.90;;;;;;5073387;28;21021;-67
2023/12/20 04:53:23;;;;;;;13.27;3.70;;;3.90;99.90;;;;;;5070920;28;20047;-68
2023/12/20 04:55:49;;;;;;;9.98;3.90;;;3.90;99.90;;;;;;5068972;28;20028;-67
2023/12/20 04:58:14;;;;;;;17.75;4.03;;;3.90;99.90;;;;;;5072495;28;20028;-67
2023/12/20 05:00:40;;;;;;;12.38;3.78;;;3.90;99.90;;;;;;5064896;28;20054;-67
2023/12/20 05:03:06;;;;;;;10.13;3.83;;;3.90;99.90;;;;;;5070769;28;20039;-67
2023/12/20 05:05:31;;;;;;;11.82;6.15;;;3.90;99.90;;;;;;5068672;28;20036;-67
2023/12/20 05:07:57;;;;;;;11.07;3.80;;;3.90;99.90;;;;;;5074002;28;20028;-67
2023/12/20 05:10:22;;;;;;;10.82;4.50;;;3.90;99.90;;;;;;5069396;28;20083;-67
2023/12/20 05:12:48;;;;;;;15.32;4.68;;;3.90;99.90;;;;;;5067348;28;20033;-67
2023/12/20 05:15:13;;;;;;;13.90;5.20;;;3.90;99.90;;;;;;5060400;28;20055;-68
2023/12/20 05:17:39;;;;;;;12.68;4.55;;;3.90;99.90;;;;;;5061664;28;20538;-68
2023/12/20 05:20:06;;;;;;;18.40;4.78;;;3.80;99.90;;;;;;5065416;28;20058;-67
2023/12/20 05:22:31;;;;;;;19.65;4.60;;;3.70;99.90;;;;;;5067980;28;20040;-67
2023/12/20 05:24:57;;;;;;;12.38;3.40;;;3.70;99.90;;;;;;5066801;28;20051;-67
2023/12/20 05:27:22;;;;;;;16.10;4.22;;;3.70;99.90;;;;;;5068681;28;20126;-67
2023/12/20 05:29:48;;;;;;;18.20;4.45;;;3.70;99.90;;;;;;5064998;28;20645;-67
2023/12/20 05:32:13;;;;;;;13.32;4.00;;;3.70;99.90;;;;;;5064116;28;20042;-67
2023/12/20 05:34:39;;;;;;;10.50;3.20;;;3.80;99.90;;;;;;5067564;28;20041;-66
2023/12/20 05:37:04;;;;;;;12.48;4.35;;;3.70;99.90;;;;;;5069746;28;20058;-67
2023/12/20 05:39:30;;;;;;;17.17;3.55;;;3.80;99.90;;;;;;5063587;28;20403;-67
2023/12/20 05:41:56;;;;;;;15.10;3.20;;;3.70;99.90;;;;;;5064090;28;20036;-67
2023/12/20 05:44:22;;;;;;;20.83;3.17;;;3.70;99.90;;;;;;5063408;28;20040;-68
2023/12/20 05:46:48;;;;;;;19.27;4.32;;;3.70;99.90;;;;;;5064417;28;20120;-65
2023/12/20 05:49:14;;;;;;;13.60;3.92;;;3.70;99.90;;;;;;5067047;28;20028;-66
2023/12/20 05:51:39;;;;;;;12.07;3.00;;;3.70;99.90;;;;;;5060531;28;20036;-68
2023/12/20 05:54:05;;;;;;;15.52;3.58;;;3.80;99.90;;;;;;5057152;28;20665;-67
2023/12/20 05:56:30;;;;;;;12.65;2.55;;;3.70;99.90;;;;;;5063962;28;20067;-67
2023/12/20 05:58:56;;;;;;;16.00;3.20;;;3.70;99.90;;;;;;5065673;28;20640;-67
2023/12/20 06:01:22;;;;;;;17.90;3.50;;;3.70;99.90;;;;;;5063002;28;20044;-69
2023/12/20 06:03:47;;;;;;;11.52;3.25;;;3.80;99.90;;;;;;5061044;28;20044;-67
2023/12/20 06:06:13;;;;;;;13.45;4.25;;;3.80;99.90;;;;;;5063567;28;20043;-67
2023/12/20 06:08:39;;;;;;;21.25;4.65;;;3.90;99.90;;;;;;5062753;28;20044;-66
2023/12/20 06:11:05;;;;;;;13.60;3.45;;;3.80;99.90;;;;;;5066103;28;20055;-67
2023/12/20 06:13:31;;;;;;;13.63;3.47;;;3.80;99.90;;;;;;5064358;28;20090;-67
2023/12/20 06:15:57;;;;;;;19.60;3.50;;;3.80;99.90;;;;;;5064337;28;20094;-67
2023/12/20 06:18:24;;;;;;;15.93;3.15;;;3.80;99.90;;;;;;5064979;28;20032;-65
2023/12/20 06:20:50;;;;;;;12.20;3.67;;;3.80;99.90;;;;;;5061572;28;20231;-68
2023/12/20 06:23:15;;;;;;;12.27;3.85;;;3.80;99.90;;;;;;5062501;28;20664;-69
2023/12/20 06:25:41;;;;;;;20.10;4.07;;;3.80;99.90;;;;;;5063146;28;20131;-68
2023/12/20 06:28:06;;;;;;;15.60;3.90;;;3.90;99.90;;;;;;5062823;28;20113;-68
2023/12/20 06:30:33;;;;;;;14.40;4.00;;;3.80;99.90;;;;;;5061210;28;20043;-68
2023/12/20 06:32:58;;;;;;;14.27;4.00;;;3.90;99.90;;;;;;5063118;28;20032;-68
2023/12/20 06:35:24;;;;;;;14.27;3.58;;;3.80;99.90;;;;;;5063527;28;20053;-68
2023/12/20 06:37:50;;;;;;;16.85;3.45;;;3.80;99.90;;;;;;5057854;28;20119;-68
2023/12/20 06:40:17;;;;;;;12.70;3.83;;;3.80;99.90;;;;;;5055127;28;20032;-69
2023/12/20 06:42:44;;;;;;;21.02;4.10;;;3.80;99.90;;;;;;5057358;28;20115;-69
2023/12/20 06:45:10;;;;;;;21.20;3.95;;;3.80;99.90;;;;;;5061490;28;20045;-68
2023/12/20 06:47:35;;;;;;;11.07;3.60;;;3.80;99.90;;;;;;5060264;28;20778;-68
2023/12/20 06:50:01;;;;;;;21.58;5.03;;;3.70;99.90;;;;;;5061528;28;20041;-69
2023/12/20 06:52:27;;;;;;;16.40;4.00;;;3.70;99.90;;;;;;5060455;28;20035;-68
2023/12/20 06:54:52;;;;;;;23.20;3.58;;;3.80;99.90;;;;;;5061084;28;20052;-68
2023/12/20 06:57:19;;;;;;;26.95;4.70;;;3.80;99.90;;;;;;5062058;28;20127;-68
2023/12/20 06:59:45;;;;;;;17.75;3.95;;;3.70;99.90;;;;;;5060773;28;20044;-70
2023/12/20 07:02:10;;;;;;;19.30;4.95;;;3.80;99.90;;;;;;5059211;28;20131;-69
2023/12/20 07:04:40;;;;;;;19.17;3.85;;;3.80;99.90;;;;;;5060669;28;20131;-69
2023/12/20 07:07:05;;;;;;;20.60;4.18;;;3.70;99.90;;;;;;5060253;28;20045;-69
2023/12/20 07:09:31;;;;;;;19.67;3.72;;;3.80;99.90;;;;;;5059036;28;20135;-69
2023/12/20 07:11:56;;;;;;;16.20;3.78;;;3.80;99.90;;;;;;5060597;28;20708;-68
2023/12/20 07:14:22;;;;;;;20.52;3.88;;;3.80;99.90;;;;;;5059209;28;20032;-67
2023/12/20 07:16:47;;;;;;;17.25;3.95;;;3.80;99.90;;;;;;5060444;28;20086;-68
2023/12/20 07:19:13;;;;;;;12.80;3.38;;;3.80;99.90;;;;;;5059934;28;20043;-69
2023/12/20 07:21:38;;;;;;;19.65;3.92;;;3.80;99.90;;;;;;5060119;28;20036;-68
2023/12/20 07:24:04;;;;;;;19.67;3.70;;;3.80;99.90;;;;;;4978499;28;20049;-69
2023/12/20 07:26:30;;;;;;;15.32;3.90;;;3.80;99.90;;;;;;5013583;28;20093;-69
2023/12/20 07:28:55;;;;;;;16.77;3.88;;;3.80;99.90;;;;;;5030647;28;20038;-68
2023/12/20 07:31:21;;;;;;;19.92;4.28;;;3.80;99.90;;;;;;5034589;28;20116;-68
2023/12/20 07:33:47;;;;;;;13.35;4.03;;;3.70;99.90;;;;;;5046871;28;20041;-68
2023/12/20 07:36:12;;;;;;;18.95;4.55;;;3.70;99.90;;;;;;5047083;28;20041;-68
2023/12/20 07:38:38;;;;;;;20.33;4.90;;;3.80;99.90;;;;;;5047366;28;20122;-68
2023/12/20 07:41:04;;;;;;;26.45;3.80;;;3.80;99.90;;;;;;5046666;28;20179;-69
2023/12/20 07:43:30;;;;;;;21.85;4.45;;;3.80;99.90;;;;;;5043154;28;20021;-68
2023/12/20 07:45:56;;;;;;;14.07;3.78;;;3.90;99.90;;;;;;5045456;28;20044;-68
2023/12/20 07:48:22;;;;;;;23.35;3.28;;;3.90;99.90;;;;;;5044899;28;20541;-68
2023/12/20 07:50:47;;;;;;;14.98;2.88;;;3.90;99.90;;;;;;5062715;28;20424;-68
2023/12/20 07:53:13;;;;;;;14.88;2.85;;;3.90;99.90;;;;;;5044104;28;20039;-68
2023/12/20 07:55:39;;;;;;;13.65;3.72;;;3.90;99.90;;;;;;5045782;28;20068;-68
2023/12/20 07:58:05;;;;;;;18.88;3.53;;;4.00;99.90;;;;;;5045742;28;20087;-68
2023/12/20 08:00:30;;;;;;;19.33;4.95;;;4.00;99.90;;;;;;5044806;28;20041;-68
2023/12/20 08:02:56;;;;;;;15.15;2.85;;;4.00;99.90;;;;;;5042902;28;20037;-69
2023/12/20 08:05:21;;;;;;;20.13;3.80;;;3.90;99.90;;;;;;5047864;28;20033;-68
2023/12/20 08:07:47;;;;;;;13.35;2.88;;;4.00;99.90;;;;;;5042494;28;20108;-68
2023/12/20 08:10:13;;;;;;;12.80;2.75;;;4.00;99.90;;;;;;5046373;28;20041;-68
2023/12/20 08:12:39;;;;;;;16.67;3.00;;;4.00;99.90;;;;;;5048164;28;20044;-68
2023/12/20 08:15:05;;;;;;;18.17;3.25;;;3.90;99.90;;;;;;5046762;28;20536;-68
2023/12/20 08:17:31;;;;;;;16.80;2.95;;;3.90;99.90;;;;;;5046816;28;20610;-68
2023/12/20 08:19:59;;;;;;;17.50;2.75;;;3.90;99.90;;;;;;5050924;28;20373;-69
2023/12/20 08:22:24;;;;;;;14.98;3.00;;;3.90;99.90;;;;;;5050449;28;20509;-69
2023/12/20 08:24:51;;;;;;;14.45;4.15;;;3.90;99.90;;;;;;5048766;28;20033;-69
2023/12/20 08:27:17;;;;;;;12.77;2.90;;;3.90;99.90;;;;;;5046865;28;20118;-68
2023/12/20 08:29:45;;;;;;;20.42;3.70;;;3.90;99.90;;;;;;5047100;28;20629;-69
2023/12/20 08:32:10;;;;;;;23.08;3.33;;;3.90;99.90;;;;;;5062219;28;20036;-69
2023/12/20 08:34:36;;;;;;;18.63;4.43;;;3.90;99.90;;;;;;5064177;28;20047;-69
2023/12/20 08:37:02;;;;;;;15.82;4.18;;;4.00;99.90;;;;;;5062101;28;20066;-69
2023/12/20 08:39:29;;;;;;;17.50;4.13;;;4.00;99.90;;;;;;5063020;28;20044;-69
2023/12/20 08:41:58;;;;;;;11.02;3.50;;;4.00;99.90;;;;;;5065657;28;20039;-68
2023/12/20 08:44:25;;;;;;;22.30;3.55;;;4.00;99.90;;;;;;5060901;28;20408;-69
2023/12/20 08:46:51;;;;;;;14.98;3.53;;;4.00;99.90;;;;;;5064205;28;20040;-67
2023/12/20 08:49:17;;;;;;;16.45;3.75;;;4.00;99.90;;;;;;5065564;28;20032;-68
2023/12/20 08:51:42;;;;;;;19.27;4.55;;;4.00;99.90;;;;;;5065692;28;20131;-68
2023/12/20 08:54:08;;;;;;;18.50;3.63;;;4.00;99.90;;;;;;5064337;28;20581;-69
2023/12/20 08:56:34;;;;;;;15.93;3.90;;;3.90;99.90;;;;;;5064968;28;20454;-68
2023/12/20 08:59:03;;;;;;;15.32;4.05;;;4.00;99.90;;;;;;5063803;28;20048;-69
2023/12/20 09:01:31;;;;;;;19.55;3.40;;;3.90;99.90;;;;;;5071874;28;20154;-69
2023/12/20 09:04:00;;;;;;;18.35;3.60;;;3.90;99.90;;;;;;5065884;28;20063;-68
2023/12/20 09:06:26;;;;;;;12.43;3.05;;;3.80;99.90;;;;;;5065715;28;20072;-68
2023/12/20 09:08:52;;;;;;;19.48;3.55;;;3.90;99.90;;;;;;5065640;28;20071;-68
2023/12/20 09:11:18;;;;;;;15.27;3.45;;;3.80;99.90;;;;;;5065699;28;20028;-66
2023/12/20 09:13:44;;;;;;;15.75;3.58;;;3.80;99.90;;;;;;5066383;28;20052;-69
2023/12/20 09:16:10;;;;;;;16.58;3.25;;;3.90;99.90;;;;;;5062478;28;20174;-68
2023/12/20 09:18:35;;;;;;;21.83;4.00;;;3.90;99.90;;;;;;5065013;28;20100;-68
2023/12/20 09:21:04;;;;;;;13.07;3.40;;;3.90;99.90;;;;;;5065732;28;20025;-68
2023/12/20 09:23:30;;;;;;;13.80;3.72;;;3.90;99.90;;;;;;5064790;28;20040;-68
2023/12/20 09:25:55;;;;;;;17.58;3.83;;;3.90;99.90;;;;;;5071081;28;20036;-69
2023/12/20 09:28:21;;;;;;;18.83;3.83;;;4.00;99.90;;;;;;5068210;28;20033;-69
2023/12/20 09:30:47;;;;;;;13.57;3.33;;;4.00;99.90;;;;;;5068722;28;20032;-68
2023/12/20 09:33:13;;;;;;;12.20;3.53;;;4.00;99.90;;;;;;5064645;28;20040;-69
2023/12/20 09:35:39;;;;;;;23.55;4.57;;;4.00;99.90;;;;;;5071137;28;20424;-68
2023/12/20 09:38:05;;;;;;;15.20;3.13;;;4.00;99.90;;;;;;5074020;28;20028;-69
2023/12/20 09:40:32;;;;;;;14.07;3.70;;;4.00;99.90;;;;;;5067907;28;20040;-69
2023/12/20 09:43:03;;;;;;;11.10;3.13;;;4.00;99.90;;;;;;5068504;28;20033;-69
2023/12/20 09:45:30;;;;;;;16.25;3.78;;;4.00;99.90;;;;;;5069542;28;20044;-68
2023/12/20 09:47:57;;;;;;;9.80;3.53;;;4.00;99.90;;;;;;5062225;28;20029;-69
2023/12/20 09:50:24;;;;;;;11.35;3.20;;;4.00;99.90;;;;;;5069905;28;20036;-68
2023/12/20 09:52:53;;;;;;;13.52;3.80;;;4.10;99.90;;;;;;5064239;28;20045;-68
2023/12/20 09:55:20;;;;;;;19.00;3.95;;;4.00;99.90;;;;;;5063159;28;20036;-69
2023/12/20 09:57:49;;;;;;;20.33;3.55;;;4.00;99.90;;;;;;5069382;28;20040;-69
2023/12/20 10:00:15;;;;;;;12.80;3.40;;;4.00;99.90;;;;;;5064864;28;20040;-68
2023/12/20 10:02:49;;;;;;;15.55;3.92;;;4.00;99.90;;;;;;5070100;28;20044;-69
2023/12/20 10:05:20;;;;;;;16.95;3.53;;;4.00;99.90;;;;;;5070443;28;20123;-69
2023/12/20 10:07:46;;;;;;;11.02;3.35;;;4.00;99.90;;;;;;5063039;28;20049;-69
2023/12/20 10:10:14;;;;;;;18.00;5.35;;;4.10;99.90;;;;;;5063582;28;20047;-69
2023/12/20 10:12:40;;;;;;;10.68;3.33;;;4.10;99.90;;;;;;5067868;28;20036;-69
2023/12/20 10:15:06;;;;;;;12.00;2.92;;;4.10;99.90;;;;;;5058043;28;20048;-67
2023/12/20 10:17:32;;;;;;;12.65;2.95;;;4.10;99.90;;;;;;5058998;28;20132;-68
2023/12/20 10:19:58;;;;;;;16.27;4.40;;;4.10;99.90;;;;;;5062020;28;20036;-69
2023/12/20 10:22:24;;;;;;;15.13;3.00;;;4.10;99.90;;;;;;5062116;28;20047;-69
2023/12/20 10:24:49;;;;;;;11.63;3.00;;;4.10;99.90;;;;;;5060984;28;20033;-68
2023/12/20 10:27:19;;;;;;;12.85;3.10;;;4.10;99.90;;;;;;5063505;28;20036;-69
2023/12/20 10:29:45;;;;;;;12.70;2.83;;;4.10;99.90;;;;;;5061486;28;20505;-69
2023/12/20 10:32:36;;;;;;;12.85;3.10;;;4.20;99.90;;;;;;5062563;28;20507;-69
2023/12/20 10:35:02;;;;;;;12.77;3.80;;;4.20;99.90;;;;;;5059206;28;20072;-69
2023/12/20 10:37:28;;;;;;;19.30;4.63;;;4.20;99.90;;;;;;5062072;28;20083;-69
2023/12/20 10:39:57;;;;;;;9.27;2.97;;;4.20;99.90;;;;;;5066468;28;20116;-69
2023/12/20 10:42:26;;;;;;;17.50;3.13;;;4.20;99.90;;;;;;5062738;28;20040;-69
2023/12/20 10:44:53;;;;;;;19.38;2.90;;;4.20;99.90;;;;;;5066382;28;20051;-69
2023/12/20 10:47:20;;;;;;;14.85;2.88;;;4.30;99.90;;;;;;5057601;28;20447;-69
2023/12/20 10:49:46;;;;;;;21.35;4.10;;;4.30;99.90;;;;;;5059494;28;20029;-69
2023/12/20 10:52:12;;;;;;;18.95;4.05;;;4.30;99.90;;;;;;5062631;28;20112;-69
2023/12/20 10:54:41;;;;;;;10.02;2.78;;;4.30;99.90;;;;;;5067478;28;20058;-66
2023/12/20 10:57:08;;;;;;;16.05;2.70;;;4.30;99.90;;;;;;5066044;28;20119;-67
2023/12/20 10:59:36;;;;;;;10.00;2.63;;;4.20;99.90;;;;;;5066683;28;20085;-67
2023/12/20 11:02:06;;;;;;;17.42;3.08;;;4.20;99.90;;;;;;5062486;28;20033;-68
2023/12/20 11:04:51;;;;;;;9.35;2.80;;;4.20;99.90;;;;;;5065482;28;20407;-68
2023/12/20 11:07:31;;;;;;;9.93;2.97;;;4.20;99.90;;;;;;5059400;28;20045;-67
2023/12/20 11:10:12;;;;;;;11.88;3.28;;;4.30;99.90;;;;;;5060964;28;20033;-64
2023/12/20 11:13:02;;;;;;;10.77;2.90;;;4.30;99.90;;;;;;5063563;28;20115;-64
2023/12/20 11:15:28;;;;;;;12.25;3.92;;;4.40;99.90;;;;;;5061350;28;20043;-67
2023/12/20 11:17:58;;;;;;;13.52;2.97;;;4.50;99.90;;;;;;5067485;28;20079;-67
2023/12/20 11:20:34;;;;;;;12.55;2.72;;;4.50;99.90;;;;;;5056676;28;20052;-67
2023/12/20 11:23:00;;;;;;;12.45;2.60;;;4.50;99.90;;;;;;5062561;28;20053;-65
2023/12/20 11:25:26;;;;;;;22.15;4.18;;;4.50;99.90;;;;;;5065684;28;20519;-63
2023/12/20 11:28:09;;;;;;;10.82;3.15;;;4.50;99.90;;;;;;5063031;28;20133;-65
2023/12/20 11:30:43;;;;;;;13.55;3.40;;;4.50;99.90;;;;;;5049760;28;20177;-65
2023/12/20 11:33:09;;;;;;;12.73;3.45;;;4.50;99.90;;;;;;5061292;28;21102;-66
2023/12/20 11:35:36;;;;;;;12.32;2.92;;;4.50;99.90;;;;;;5060725;28;20115;-66
2023/12/20 11:38:02;;;;;;;14.68;2.97;;;4.50;99.90;;;;;;5057172;28;20041;-66
2023/12/20 11:40:27;;;;;;;22.38;5.07;;;4.50;99.90;;;;;;5058346;28;20515;-65
2023/12/20 11:42:54;;;;;;;13.80;3.50;;;4.50;99.90;;;;;;5062449;28;20037;-66
2023/12/20 11:45:24;;;;;;;25.63;3.83;;;4.50;99.90;;;;;;5062720;28;20044;-68
2023/12/20 11:47:55;;;;;;;16.10;4.25;;;4.50;99.90;;;;;;5061941;28;20052;-65
2023/12/20 11:50:22;;;;;;;13.63;3.70;;;4.50;99.90;;;;;;5061805;28;20707;-64
2023/12/20 11:52:49;;;;;;;14.32;3.85;;;4.50;99.90;;;;;;5066969;28;20048;-66
2023/12/20 11:55:15;;;;;;;10.93;3.45;;;4.50;99.90;;;;;;5066814;28;20518;-66
2023/12/20 11:57:41;;;;;;;12.63;4.60;;;4.50;99.90;;;;;;5067369;28;20062;-68
2023/12/20 12:00:08;;;;;;;13.60;3.53;;;4.50;99.90;;;;;;5062279;28;20040;-68
2023/12/20 12:02:33;;;;;;;13.25;3.75;;;4.40;99.90;;;;;;5064086;28;20128;-68
2023/12/20 12:05:00;;;;;;;12.57;3.33;;;4.40;99.90;;;;;;5059599;28;20123;-68
2023/12/20 12:07:25;;;;;;;14.82;3.50;;;4.40;99.90;;;;;;5064109;28;20467;-68
2023/12/20 12:09:51;;;;;;;14.57;3.15;;;4.50;99.90;;;;;;5058141;28;20039;-67
2023/12/20 12:12:19;;;;;;;21.40;4.55;;;4.50;99.90;;;;;;5063082;28;20495;-68
2023/12/20 12:14:45;;;;;;;11.38;2.97;;;4.50;99.90;;;;;;5061541;28;20067;-69
2023/12/20 12:17:12;;;;;;;12.60;3.65;;;4.50;99.90;;;;;;5065072;28;20634;-69
2023/12/20 12:19:39;;;;;;;13.52;3.42;;;4.50;99.90;;;;;;5065105;28;20054;-70
2023/12/20 12:22:10;;;;;;;12.57;4.03;;;4.50;99.90;;;;;;5062995;28;20043;-69
2023/12/20 12:24:37;;;;;;;11.85;3.13;;;4.50;99.90;;;;;;5061776;28;20131;-68
2023/12/20 12:27:03;;;;;;;10.20;2.80;;;4.50;99.90;;;;;;5066190;28;20041;-69
2023/12/20 12:29:29;;;;;;;10.68;3.15;;;4.40;99.90;;;;;;5066578;28;20075;-70
2023/12/20 12:31:55;;;;;;;7.43;3.00;;;4.40;99.90;;;;;;5065715;28;20112;-69
2023/12/20 12:34:21;;;;;;;12.90;3.10;;;4.40;99.90;;;;;;5066605;28;20124;-68
2023/12/20 12:36:48;;;;;;;9.18;2.85;;;4.40;99.90;;;;;;5064778;28;20074;-68
2023/12/20 12:39:17;;;;;;;10.88;3.13;;;4.40;99.90;;;;;;5066400;28;20581;-69
2023/12/20 12:41:47;;;;;;;8.55;2.50;;;4.50;99.90;;;;;;5067648;28;20048;-67
2023/12/20 12:44:13;;;;;;;12.75;3.33;;;4.50;99.90;;;;;;5064937;28;20024;-69
2023/12/20 12:46:39;;;;;;;12.57;3.30;;;4.40;99.90;;;;;;5068176;28;20048;-68